createdAt,value
2019-02-10T00:03:06.102Z,763.58
2019-02-10T00:09:36.957Z,774.00
2019-02-10T00:16:10.762Z,786.85
2019-02-10T00:22:42.218Z,790.38
2019-02-10T00:26:06.583Z,788.12
2019-02-10T00:32:37.304Z,809.90
2019-02-10T00:36:01.689Z,803.05
2019-02-10T00:42:32.812Z,922.63
2019-02-10T00:49:03.234Z,921.57
2019-02-10T00:52:27.683Z,917.90
2019-02-10T00:58:58.413Z,906.85
2019-02-10T01:05:28.782Z,892.75
2019-02-10T01:08:53.310Z,879.10
2019-02-10T01:15:24.455Z,874.20
2019-02-10T01:21:57.734Z,877.82
2019-02-10T01:25:23.702Z,857.08
2019-02-10T01:31:55.996Z,858.00
2019-02-10T01:38:26.423Z,852.63
2019-02-10T01:44:57.192Z,846.85
2019-02-10T01:51:28.148Z,843.77
2019-02-10T01:57:58.429Z,851.45
2019-02-10T02:00:28.523Z,847.80
2019-02-10T02:06:59.156Z,846.57
2019-02-10T02:13:30.368Z,849.77
2019-02-10T02:16:54.722Z,837.35
2019-02-10T02:23:25.616Z,838.42
2019-02-10T02:26:50.347Z,834.07
2019-02-10T02:33:21.453Z,839.80
2019-02-10T02:39:51.965Z,831.00
2019-02-10T02:46:25.276Z,817.50
2019-02-10T02:52:56.454Z,809.95
2019-02-10T02:59:27.068Z,816.17
2019-02-10T03:01:58.073Z,803.03
2019-02-10T03:08:28.633Z,813.70
2019-02-10T03:14:59.967Z,962.05
2019-02-10T03:21:31.414Z,981.42
2019-02-10T03:28:01.935Z,989.95
2019-02-10T03:31:26.488Z,989.40
2019-02-10T03:37:57.165Z,978.27
2019-02-10T03:44:27.502Z,956.32
2019-02-10T03:47:51.965Z,939.12
2019-02-10T03:54:22.771Z,919.50
2019-02-10T03:57:47.125Z,914.72
2019-02-10T04:04:18.042Z,903.73
2019-02-10T04:10:49.285Z,900.95
2019-02-10T04:17:21.172Z,889.17
2019-02-10T04:23:52.182Z,879.23
2019-02-10T04:27:16.950Z,875.17
2019-02-10T04:33:47.851Z,865.42
2019-02-10T04:37:12.318Z,847.30
2019-02-10T04:43:43.213Z,849.25
2019-02-10T04:47:07.632Z,834.90
2019-02-10T04:53:38.417Z,847.12
2019-02-10T05:00:11.107Z,829.27
2019-02-10T05:06:42.543Z,821.70
2019-02-10T05:13:13.463Z,814.08
2019-02-10T05:19:44.456Z,810.07
2019-02-10T05:23:09.207Z,802.45
2019-02-10T05:29:39.913Z,805.27
2019-02-10T05:33:07.240Z,800.05
2019-02-10T05:39:38.258Z,802.37
2019-02-10T05:43:02.692Z,800.15
2019-02-10T05:49:33.812Z,806.97
2019-02-10T05:56:04.780Z,808.00
2019-02-10T06:02:35.428Z,794.50
2019-02-10T06:09:06.645Z,779.02
2019-02-10T06:15:37.546Z,785.90
2019-02-10T06:18:07.607Z,784.70
2019-02-10T06:24:38.295Z,779.62
2019-02-10T06:28:02.883Z,780.05
2019-02-10T06:34:33.590Z,767.42
2019-02-10T06:37:58.007Z,768.70
2019-02-10T06:44:28.784Z,760.25
2019-02-10T06:51:00.017Z,747.40
2019-02-10T06:57:30.924Z,763.77
2019-02-10T07:04:04.378Z,766.97
2019-02-10T07:07:28.994Z,751.02
2019-02-10T07:09:59.067Z,746.22
2019-02-10T07:16:38.556Z,767.95
2019-02-10T07:23:38.662Z,782.50
2019-02-10T07:30:12.781Z,783.45
2019-02-10T07:36:52.417Z,787.52
2019-02-10T07:43:32.381Z,794.65
2019-02-10T07:46:17.155Z,787.80
2019-02-10T07:53:03.650Z,801.10
2019-02-10T07:59:46.777Z,790.70
2019-02-10T08:06:23.808Z,811.33
2019-02-10T08:12:57.333Z,781.35
2019-02-10T08:19:39.552Z,794.05
2019-02-10T08:26:28.976Z,793.83
2019-02-10T08:29:53.299Z,781.60
2019-02-10T08:36:49.733Z,778.60
2019-02-10T08:43:23.222Z,806.38
2019-02-10T08:46:47.667Z,799.80
2019-02-10T08:53:21.077Z,826.62
2019-02-10T08:56:45.395Z,826.70
2019-02-10T09:03:19.583Z,842.68
2019-02-10T09:09:47.529Z,845.25
2019-02-10T09:16:17.667Z,863.03
2019-02-10T09:22:48.436Z,874.85
2019-02-10T09:29:18.939Z,896.90
2019-02-10T09:35:50.057Z,940.47
2019-02-10T09:39:14.584Z,943.90
2019-02-10T09:45:45.341Z,968.05
2019-02-10T09:49:09.665Z,965.42
2019-02-10T09:55:39.979Z,979.00
2019-02-10T09:59:04.278Z,986.12
2019-02-10T10:05:34.778Z,1000.23
2019-02-10T10:08:59.283Z,1014.70
2019-02-10T10:15:29.715Z,1010.17
2019-02-10T10:17:59.510Z,1030.30
2019-02-10T10:24:30.265Z,1047.83
2019-02-10T10:31:01.169Z,1061.80
2019-02-10T10:34:25.671Z,1067.15
2019-02-10T10:40:56.611Z,1049.93
2019-02-10T10:44:21.228Z,1036.58
2019-02-10T10:50:51.941Z,1026.58
2019-02-10T10:57:25.113Z,1023.30
2019-02-10T11:03:55.586Z,1007.10
2019-02-10T11:07:20.103Z,1008.68
2019-02-10T11:13:51.355Z,992.83
2019-02-10T11:20:22.548Z,991.35
2019-02-10T11:26:54.025Z,984.88
2019-02-10T11:33:26.549Z,998.17
2019-02-10T11:36:50.963Z,1010.90
2019-02-10T11:43:22.883Z,989.83
2019-02-10T11:46:47.917Z,973.20
2019-02-10T11:53:18.519Z,984.92
2019-02-10T11:56:43.305Z,979.67
2019-02-10T12:03:14.336Z,995.40
2019-02-10T12:06:38.815Z,991.80
2019-02-10T12:13:10.141Z,1003.83
2019-02-10T12:16:34.670Z,995.35
2019-02-10T12:23:05.926Z,1001.17
2019-02-10T12:26:12.367Z,1008.58
2019-02-10T12:32:43.428Z,1029.68
2019-02-10T12:39:14.068Z,1042.53
2019-02-10T12:42:38.629Z,1049.97
2019-02-10T12:49:09.081Z,1066.50
2019-02-10T12:52:33.817Z,1074.95
2019-02-10T12:59:04.460Z,1103.53
2019-02-10T13:02:28.914Z,1106.30
2019-02-10T13:08:59.613Z,1116.30
2019-02-10T13:12:23.873Z,1116.30
2019-02-10T13:18:54.132Z,1104.25
2019-02-10T13:22:16.763Z,1105.48
2019-02-10T13:24:46.585Z,1110.80
2019-02-10T13:31:17.045Z,1105.55
2019-02-10T13:37:47.128Z,1082.60
2019-02-10T13:44:17.200Z,1060.57
2019-02-10T13:47:41.393Z,1045.25
2019-02-10T13:54:11.625Z,1015.58
2019-02-10T13:57:35.604Z,1021.00
2019-02-10T14:04:06.265Z,1003.63
2019-02-10T14:10:36.845Z,999.83
2019-02-10T14:14:01.156Z,999.75
2019-02-10T14:20:32.355Z,1015.87
2019-02-10T14:27:03.851Z,1016.22
2019-02-10T14:33:38.816Z,1010.27
2019-02-10T14:40:07.886Z,1006.70
2019-02-10T14:46:38.737Z,1002.45
2019-02-10T14:50:03.457Z,997.45
2019-02-10T14:56:34.011Z,1002.30
2019-02-10T15:03:05.261Z,1003.02
2019-02-10T15:09:36.180Z,995.85
2019-02-10T15:16:07.298Z,975.15
2019-02-10T15:22:37.999Z,967.98
2019-02-10T15:29:08.809Z,967.37
2019-02-10T15:35:39.695Z,967.85
2019-02-10T15:42:10.872Z,964.10
2019-02-10T15:45:35.345Z,974.42
2019-02-10T15:52:06.225Z,945.92
2019-02-10T15:55:30.746Z,947.00
2019-02-10T16:02:01.496Z,954.20
2019-02-10T16:08:32.353Z,955.98
2019-02-10T16:11:56.779Z,940.58
2019-02-10T16:18:27.354Z,947.42
2019-02-10T16:21:52.038Z,947.57
2019-02-10T16:28:22.698Z,936.70
2019-02-10T16:30:52.737Z,922.13
2019-02-10T16:37:22.860Z,941.30
2019-02-10T16:40:47.357Z,942.00
2019-02-10T16:47:17.721Z,893.13
2019-02-10T16:53:48.061Z,870.12
2019-02-10T17:00:20.197Z,841.05
2019-02-10T17:06:50.914Z,829.65
2019-02-10T17:13:21.847Z,888.42
2019-02-10T17:19:52.320Z,868.92
2019-02-10T17:23:16.979Z,840.63
2019-02-10T17:29:47.961Z,874.20
2019-02-10T17:36:18.360Z,853.10
2019-02-10T17:39:42.898Z,854.97
2019-02-10T17:46:13.817Z,848.93
2019-02-10T17:49:38.409Z,862.15
2019-02-10T17:56:10.717Z,857.83
2019-02-10T17:59:35.020Z,852.17
2019-02-10T18:06:08.032Z,856.47
2019-02-10T18:09:32.743Z,859.55
2019-02-10T18:16:04.618Z,893.45
2019-02-10T18:19:29.484Z,881.05
2019-02-10T18:26:04.773Z,878.27
2019-02-10T18:28:54.131Z,877.75
2019-02-10T18:31:40.823Z,885.37
2019-02-10T18:38:26.704Z,880.40
2019-02-10T18:41:50.964Z,887.27
2019-02-10T18:48:24.491Z,891.25
2019-02-10T18:54:58.937Z,894.50
2019-02-10T18:58:23.582Z,886.33
2019-02-10T19:04:58.734Z,906.98
2019-02-10T19:11:30.601Z,909.52
2019-02-10T19:14:15.443Z,897.80
2019-02-10T19:16:46.984Z,885.52
2019-02-10T19:20:11.195Z,888.57
2019-02-10T19:26:59.469Z,902.92
2019-02-10T19:33:31.401Z,893.73
2019-02-10T19:40:03.100Z,898.78
2019-02-10T19:46:47.248Z,906.20
2019-02-10T19:50:11.755Z,887.35
2019-02-10T19:57:01.840Z,892.45
2019-02-10T20:03:46.494Z,886.30
2019-02-10T20:07:11.269Z,884.00
2019-02-10T20:13:59.836Z,885.43
2019-02-10T20:17:24.460Z,889.08
2019-02-10T20:24:03.733Z,892.28
2019-02-10T20:30:48.661Z,873.40
2019-02-10T20:37:23.678Z,892.50
2019-02-10T20:43:56.168Z,891.40
2019-02-10T20:50:28.457Z,894.80
2019-02-10T20:57:01.184Z,904.08
2019-02-10T21:03:42.670Z,881.15
2019-02-10T21:10:18.217Z,889.65
2019-02-10T21:13:42.941Z,889.17
2019-02-10T21:20:16.059Z,903.40
2019-02-10T21:26:48.502Z,926.05
2019-02-10T21:30:13.089Z,905.30
2019-02-10T21:36:45.842Z,912.03
2019-02-10T21:43:24.170Z,907.00
2019-02-10T21:49:54.953Z,896.37
2019-02-10T21:53:19.835Z,884.07
2019-02-10T21:59:50.968Z,896.25
2019-02-10T22:06:21.907Z,901.47
2019-02-10T22:09:46.813Z,888.45
2019-02-10T22:16:17.473Z,906.95
2019-02-10T22:19:42.136Z,901.25
2019-02-10T22:26:13.707Z,904.00
2019-02-10T22:32:44.411Z,907.05
2019-02-10T22:39:15.086Z,900.10
2019-02-10T22:45:45.909Z,886.43
2019-02-10T22:49:10.308Z,900.92
2019-02-10T22:55:41.574Z,889.05
2019-02-10T22:59:06.060Z,884.60
2019-02-10T23:05:37.059Z,904.72
2019-02-10T23:09:01.703Z,890.92
2019-02-10T23:15:32.331Z,922.57
2019-02-10T23:18:56.697Z,922.55
2019-02-10T23:25:27.804Z,922.87
2019-02-10T23:32:00.333Z,923.78
2019-02-10T23:35:24.811Z,928.85
2019-02-10T23:41:55.906Z,911.73
2019-02-10T23:48:26.433Z,919.88
2019-02-10T23:54:57.323Z,912.18
